createdAt,value
2018-06-25T00:00:40.693Z,90.60
2018-06-25T00:03:10.711Z,91.00
2018-06-25T00:05:40.766Z,91.10
2018-06-25T00:08:11.227Z,90.90
2018-06-25T00:10:41.583Z,90.90
2018-06-25T00:13:11.735Z,90.90
2018-06-25T00:15:41.893Z,90.60
2018-06-25T00:18:11.984Z,90.80
2018-06-25T00:20:42.312Z,90.60
2018-06-25T00:23:12.478Z,90.50
2018-06-25T00:25:42.590Z,90.40
2018-06-25T00:28:12.598Z,90.60
2018-06-25T00:30:42.948Z,90.50
2018-06-25T00:40:28.362Z,90.40
2018-06-25T00:42:59.385Z,91.00
2018-06-25T00:45:30.504Z,90.30
2018-06-25T00:48:00.528Z,90.40
2018-06-25T00:50:30.913Z,89.90
2018-06-25T00:53:01.192Z,90.20
2018-06-25T00:55:31.379Z,90.00
2018-06-25T00:58:02.393Z,89.70
2018-06-25T01:00:32.469Z,89.80
2018-06-25T01:03:02.584Z,90.50
2018-06-25T01:05:32.622Z,90.70
2018-06-25T01:08:02.913Z,90.80
2018-06-25T01:10:32.673Z,90.90
2018-06-25T01:13:02.800Z,91.30
2018-06-25T01:15:32.709Z,91.60
2018-06-25T01:18:03.094Z,91.30
2018-06-25T01:20:34.339Z,91.40
2018-06-25T01:23:05.400Z,91.60
2018-06-25T01:25:36.688Z,91.40
2018-06-25T01:28:07.168Z,91.40
2018-06-25T01:30:37.415Z,91.60
2018-06-25T01:33:07.698Z,92.20
2018-06-25T01:35:38.009Z,92.70
2018-06-25T01:38:08.469Z,92.70
2018-06-25T01:40:38.684Z,93.50
2018-06-25T01:43:09.003Z,93.70
2018-06-25T01:45:39.196Z,93.50
2018-06-25T01:48:09.325Z,93.80
2018-06-25T01:50:39.868Z,94.00
2018-06-25T01:53:09.813Z,94.60
2018-06-25T01:58:09.688Z,94.70
2018-06-25T02:00:40.320Z,94.90
2018-06-25T02:03:10.522Z,95.00
2018-06-25T02:05:40.589Z,94.70
2018-06-25T02:08:10.969Z,94.60
2018-06-25T02:10:41.163Z,94.30
2018-06-25T02:15:41.119Z,93.80
2018-06-25T02:18:11.468Z,94.00
2018-06-25T02:20:41.973Z,93.60
2018-06-25T02:23:12.058Z,93.40
2018-06-25T02:25:42.399Z,93.10
2018-06-25T02:28:12.545Z,93.10
2018-06-25T02:30:42.743Z,93.20
2018-06-25T02:33:12.810Z,92.90
2018-06-25T02:35:43.125Z,92.70
2018-06-25T02:38:13.333Z,92.80
2018-06-25T02:40:43.486Z,92.90
2018-06-25T02:43:13.659Z,92.90
2018-06-25T02:45:43.849Z,92.90
2018-06-25T02:48:14.135Z,92.90
2018-06-25T02:50:44.079Z,92.90
2018-06-25T02:53:15.111Z,92.80
2018-06-25T02:55:46.569Z,92.90
2018-06-25T02:58:17.260Z,92.80
2018-06-25T03:00:48.099Z,93.30
2018-06-25T03:05:48.815Z,93.30
2018-06-25T03:08:19.013Z,93.60
2018-06-25T03:10:49.085Z,94.40
2018-06-25T03:13:19.003Z,94.10
2018-06-25T03:15:49.182Z,93.60
2018-06-25T03:18:19.365Z,93.70
2018-06-25T03:20:49.569Z,93.60
2018-06-25T03:23:19.770Z,93.80
2018-06-25T03:25:49.971Z,94.00
2018-06-25T03:28:20.061Z,93.70
2018-06-25T03:30:49.929Z,94.10
2018-06-25T03:33:20.119Z,93.70
2018-06-25T03:35:50.654Z,93.90
2018-06-25T03:38:20.916Z,94.00
2018-06-25T03:40:51.160Z,94.20
2018-06-25T03:43:21.339Z,94.10
2018-06-25T03:45:51.466Z,94.30
2018-06-25T03:48:21.704Z,93.90
2018-06-25T03:50:52.034Z,93.80
2018-06-25T03:53:22.165Z,94.30
2018-06-25T03:55:52.261Z,94.30
2018-06-25T03:58:22.328Z,94.60
2018-06-25T04:00:52.839Z,94.60
2018-06-25T04:03:23.081Z,94.90
2018-06-25T04:08:23.275Z,94.50
2018-06-25T04:10:53.416Z,94.10
2018-06-25T04:13:23.237Z,94.00
2018-06-25T04:15:53.464Z,93.80
2018-06-25T04:18:23.524Z,93.80
2018-06-25T04:20:53.900Z,93.80
2018-06-25T04:23:24.245Z,93.60
2018-06-25T04:25:55.770Z,93.80
2018-06-25T04:30:28.231Z,93.70
2018-06-25T04:32:58.935Z,93.50
2018-06-25T04:35:29.885Z,93.40
2018-06-25T04:40:30.784Z,93.90
2018-06-25T04:43:01.150Z,93.60
2018-06-25T04:45:31.021Z,93.60
2018-06-25T04:48:01.110Z,93.90
2018-06-25T04:50:31.292Z,93.70
2018-06-25T04:53:01.466Z,94.30
2018-06-25T04:55:31.755Z,94.40
2018-06-25T04:58:01.969Z,94.10
2018-06-25T05:00:32.689Z,93.90
2018-06-25T05:03:02.685Z,93.80
2018-06-25T05:05:32.910Z,94.00
2018-06-25T05:08:03.430Z,94.10
2018-06-25T05:10:33.615Z,94.40
2018-06-25T05:13:03.913Z,94.20
2018-06-25T05:15:34.346Z,94.00
2018-06-25T05:18:04.996Z,94.20
2018-06-25T05:20:35.135Z,94.00
2018-06-25T05:23:05.765Z,93.90
2018-06-25T05:25:35.920Z,94.10
2018-06-25T05:28:06.063Z,94.40
2018-06-25T05:30:36.402Z,94.00
2018-06-25T05:33:07.110Z,94.60
2018-06-25T05:35:37.621Z,94.50
2018-06-25T05:38:07.913Z,94.20
2018-06-25T05:40:38.193Z,94.30
2018-06-25T05:43:08.485Z,94.60
2018-06-25T05:45:38.439Z,94.80
2018-06-25T05:48:08.698Z,94.90
2018-06-25T05:50:38.791Z,94.50
2018-06-25T05:53:09.099Z,94.60
2018-06-25T05:55:39.234Z,94.40
2018-06-25T05:58:09.480Z,94.80
2018-06-25T06:00:39.538Z,94.80
2018-06-25T06:03:09.744Z,95.20
2018-06-25T06:05:40.036Z,95.20
2018-06-25T06:08:10.284Z,95.10
2018-06-25T06:10:40.419Z,94.90
2018-06-25T06:13:11.201Z,94.70
2018-06-25T06:15:42.606Z,94.90
2018-06-25T06:18:12.983Z,94.60
2018-06-25T06:20:43.209Z,94.40
2018-06-25T06:23:13.481Z,94.50
2018-06-25T06:25:43.660Z,94.50
2018-06-25T06:28:13.611Z,94.80
2018-06-25T06:30:43.502Z,94.50
2018-06-25T06:33:13.570Z,94.30
2018-06-25T06:35:43.537Z,94.20
2018-06-25T06:38:13.639Z,94.10
2018-06-25T06:40:43.815Z,93.90
2018-06-25T06:43:13.896Z,93.90
2018-06-25T06:45:44.210Z,94.00
2018-06-25T06:48:14.322Z,94.00
2018-06-25T06:50:44.430Z,94.10
2018-06-25T06:53:14.662Z,94.40
2018-06-25T06:55:44.926Z,94.40
2018-06-25T06:58:15.154Z,94.60
2018-06-25T07:00:45.316Z,94.90
2018-06-25T07:03:15.274Z,94.70
2018-06-25T07:05:45.701Z,94.20
2018-06-25T07:08:15.822Z,93.80
2018-06-25T07:10:46.011Z,93.50
2018-06-25T07:13:16.332Z,93.60
2018-06-25T07:15:46.381Z,93.40
2018-06-25T07:18:16.684Z,93.40
2018-06-25T07:20:46.854Z,93.20
2018-06-25T07:23:17.175Z,93.30
2018-06-25T07:25:47.177Z,93.30
2018-06-25T07:28:17.390Z,93.50
2018-06-25T07:30:47.690Z,93.40
2018-06-25T07:33:17.905Z,93.60
2018-06-25T07:35:48.140Z,92.60
2018-06-25T07:38:18.216Z,92.90
2018-06-25T07:43:18.602Z,93.00
2018-06-25T07:45:48.886Z,93.10
2018-06-25T07:48:19.071Z,92.60
2018-06-25T07:50:49.389Z,93.20
2018-06-25T07:53:19.590Z,93.30
2018-06-25T07:55:49.626Z,93.40
2018-06-25T07:58:19.767Z,93.20
2018-06-25T08:03:19.415Z,93.00
2018-06-25T08:05:49.526Z,92.90
2018-06-25T08:08:19.682Z,91.30
2018-06-25T08:10:49.796Z,91.90
2018-06-25T08:13:20.037Z,91.90
2018-06-25T08:15:50.416Z,91.70
2018-06-25T08:18:20.930Z,91.70
2018-06-25T08:20:50.800Z,91.10
2018-06-25T08:23:20.947Z,91.60
2018-06-25T08:25:51.070Z,91.80
2018-06-25T08:28:21.087Z,91.80
2018-06-25T08:30:51.441Z,91.60
2018-06-25T08:33:21.517Z,90.10
2018-06-25T08:35:51.687Z,89.20
2018-06-25T08:38:22.036Z,89.60
2018-06-25T08:40:52.227Z,89.00
2018-06-25T08:43:22.465Z,87.80
2018-06-25T08:45:52.673Z,85.60
2018-06-25T08:48:22.824Z,85.60
2018-06-25T08:50:53.111Z,83.20
2018-06-25T08:53:23.165Z,83.70
2018-06-25T08:55:53.415Z,82.80
2018-06-25T08:58:23.392Z,80.90
2018-06-25T09:00:53.882Z,80.30
2018-06-25T09:03:23.992Z,81.90
2018-06-25T09:05:54.196Z,81.00
2018-06-25T09:08:24.324Z,78.50
2018-06-25T09:10:54.560Z,79.80
2018-06-25T09:13:24.717Z,77.90
2018-06-25T09:15:55.023Z,77.00
2018-06-25T09:18:25.216Z,78.60
2018-06-25T09:20:55.242Z,79.30
2018-06-25T09:23:25.447Z,78.10
2018-06-25T09:25:55.741Z,78.30
2018-06-25T09:28:25.864Z,78.40
2018-06-25T09:30:55.937Z,79.20
2018-06-25T09:33:26.414Z,77.80
2018-06-25T09:35:56.482Z,78.60
2018-06-25T09:38:26.721Z,78.80
2018-06-25T09:40:56.962Z,76.60
2018-06-25T09:43:27.118Z,77.90
2018-06-25T09:45:57.370Z,77.80
2018-06-25T09:48:27.465Z,79.00
2018-06-25T09:50:57.653Z,78.10
2018-06-25T09:53:27.832Z,77.50
2018-06-25T09:55:58.063Z,77.90
2018-06-25T09:58:28.162Z,78.50
2018-06-25T10:01:03.219Z,78.50
2018-06-25T10:03:33.554Z,79.20
2018-06-25T10:06:03.787Z,79.30
2018-06-25T10:08:34.088Z,78.30
2018-06-25T10:11:04.393Z,78.60
2018-06-25T10:13:34.706Z,79.00
2018-06-25T10:16:04.577Z,78.10
2018-06-25T10:18:34.774Z,77.30
2018-06-25T10:21:04.733Z,76.00
2018-06-25T10:23:34.921Z,73.80
2018-06-25T10:26:05.295Z,73.10
2018-06-25T10:28:36.471Z,74.50
2018-06-25T10:40:27.602Z,74.80
2018-06-25T10:42:57.786Z,75.50
2018-06-25T10:45:28.108Z,74.50
2018-06-25T10:47:58.027Z,74.00
2018-06-25T10:50:28.178Z,74.60
2018-06-25T10:52:58.500Z,75.40
2018-06-25T10:55:29.400Z,75.50
2018-06-25T10:58:00.028Z,73.60
2018-06-25T11:00:30.348Z,71.70
2018-06-25T11:03:00.464Z,71.40
2018-06-25T11:05:30.617Z,71.00
2018-06-25T11:08:00.662Z,70.70
2018-06-25T11:10:30.935Z,71.70
2018-06-25T11:13:01.116Z,72.30
2018-06-25T11:15:31.152Z,71.90
2018-06-25T11:18:01.067Z,72.80
2018-06-25T11:20:31.432Z,71.90
2018-06-25T11:23:01.878Z,71.30
2018-06-25T11:25:31.873Z,69.50
2018-06-25T11:28:02.103Z,69.80
2018-06-25T11:30:32.316Z,70.00
2018-06-25T11:33:02.284Z,69.60
2018-06-25T11:35:32.673Z,69.40
2018-06-25T11:38:02.773Z,67.70
2018-06-25T11:40:32.997Z,66.60
2018-06-25T11:43:03.240Z,67.70
2018-06-25T11:45:33.449Z,67.90
2018-06-25T11:48:03.687Z,68.20
2018-06-25T11:50:33.964Z,68.70
2018-06-25T11:53:04.185Z,67.90
2018-06-25T11:55:34.318Z,67.20
2018-06-25T11:58:04.571Z,64.90
2018-06-25T12:00:34.772Z,65.90
2018-06-25T12:03:04.980Z,62.70
2018-06-25T12:05:34.904Z,63.90
2018-06-25T12:08:05.386Z,63.60
2018-06-25T12:10:35.535Z,65.00
2018-06-25T12:13:05.861Z,64.10
2018-06-25T12:15:35.883Z,63.30
2018-06-25T12:18:06.123Z,65.10
2018-06-25T12:20:36.471Z,60.20
2018-06-25T12:23:06.964Z,58.60
2018-06-25T12:25:37.122Z,60.10
2018-06-25T12:30:38.295Z,56.80
2018-06-25T12:33:08.647Z,58.00
2018-06-25T12:35:38.728Z,56.00
2018-06-25T12:38:08.807Z,53.70
2018-06-25T12:40:39.131Z,51.10
2018-06-25T12:43:09.325Z,52.50
2018-06-25T12:45:39.477Z,53.50
2018-06-25T12:48:09.524Z,54.80
2018-06-25T12:50:39.739Z,56.20
2018-06-25T12:53:09.759Z,57.80
2018-06-25T12:55:39.941Z,58.80
2018-06-25T12:58:10.854Z,59.60
2018-06-25T13:03:11.709Z,54.30
2018-06-25T13:05:42.490Z,52.60
2018-06-25T13:08:14.192Z,52.00
2018-06-25T13:10:44.152Z,52.10
2018-06-25T13:13:14.379Z,52.20
2018-06-25T13:15:44.439Z,51.40
2018-06-25T13:18:15.610Z,49.70
2018-06-25T13:20:46.027Z,49.80
2018-06-25T13:23:15.977Z,50.00
2018-06-25T13:25:47.354Z,49.50
2018-06-25T13:30:47.532Z,51.50
2018-06-25T13:33:17.746Z,51.50
2018-06-25T13:35:47.948Z,52.80
2018-06-25T13:38:18.252Z,53.40
2018-06-25T13:40:48.476Z,52.20
2018-06-25T13:43:18.537Z,50.90
2018-06-25T13:45:48.702Z,49.30
2018-06-25T13:48:18.986Z,49.00
2018-06-25T13:50:49.186Z,49.40
2018-06-25T13:53:19.258Z,49.70
2018-06-25T13:55:49.478Z,50.00
2018-06-25T13:58:19.678Z,50.00
2018-06-25T14:00:50.042Z,50.30
2018-06-25T14:03:20.254Z,50.20
2018-06-25T14:05:50.871Z,50.30
2018-06-25T14:08:21.300Z,50.90
2018-06-25T14:10:51.736Z,48.80
2018-06-25T14:13:22.048Z,46.90
2018-06-25T14:15:52.090Z,46.50
2018-06-25T14:18:22.388Z,45.90
2018-06-25T14:20:52.406Z,46.10
2018-06-25T14:23:22.855Z,46.90
2018-06-25T14:25:58.205Z,47.50
2018-06-25T14:31:08.084Z,46.60
2018-06-25T14:36:11.193Z,45.50
2018-06-25T14:38:41.422Z,44.60
2018-06-25T14:41:11.603Z,45.00
2018-06-25T14:43:41.846Z,44.30
2018-06-25T14:46:11.972Z,43.80
2018-06-25T14:48:42.258Z,45.60
2018-06-25T14:51:12.299Z,43.40
2018-06-25T14:53:42.526Z,41.70
2018-06-25T14:56:12.858Z,40.90
2018-06-25T14:58:43.137Z,41.30
2018-06-25T15:01:13.615Z,41.70
2018-06-25T15:03:43.722Z,41.60
2018-06-25T15:06:14.154Z,42.00
2018-06-25T15:08:44.638Z,41.50
2018-06-25T15:11:14.598Z,41.10
2018-06-25T15:13:44.710Z,39.90
2018-06-25T15:16:15.167Z,39.40
2018-06-25T15:18:45.505Z,40.10
2018-06-25T15:21:16.788Z,40.40
2018-06-25T15:23:47.998Z,37.80
2018-06-25T15:26:18.908Z,39.40
2018-06-25T15:28:49.810Z,40.30
2018-06-25T15:31:21.002Z,41.50
2018-06-25T15:33:51.678Z,41.50
2018-06-25T15:36:21.849Z,40.80
2018-06-25T15:38:51.933Z,42.10
2018-06-25T15:41:22.190Z,40.50
2018-06-25T15:43:52.249Z,39.90
2018-06-25T15:46:22.483Z,39.30
2018-06-25T15:48:52.669Z,39.50
2018-06-25T15:51:22.653Z,41.10
2018-06-25T15:56:22.844Z,40.50
2018-06-25T15:58:53.077Z,39.90
2018-06-25T16:01:23.577Z,39.40
2018-06-25T16:03:53.486Z,38.10
2018-06-25T16:06:24.106Z,37.00
2018-06-25T16:08:54.314Z,37.30
2018-06-25T16:11:24.491Z,37.30
2018-06-25T16:13:54.722Z,37.80
2018-06-25T16:16:24.938Z,37.40
2018-06-25T16:18:55.226Z,37.30
2018-06-25T16:21:25.293Z,35.90
2018-06-25T16:23:57.327Z,36.30
2018-06-25T16:26:27.554Z,35.30
2018-06-25T16:28:57.940Z,34.50
2018-06-25T16:31:28.082Z,34.00
2018-06-25T16:33:58.216Z,33.50
2018-06-25T16:36:28.507Z,33.20
2018-06-25T16:38:58.816Z,33.80
2018-06-25T16:41:28.970Z,33.70
2018-06-25T16:43:59.464Z,34.20
2018-06-25T16:46:32.138Z,34.70
2018-06-25T16:49:02.592Z,34.20
2018-06-25T16:51:33.005Z,33.30
2018-06-25T16:56:33.028Z,33.80
2018-06-25T16:59:03.442Z,32.60
2018-06-25T17:01:33.765Z,34.30
2018-06-25T17:04:04.032Z,34.80
2018-06-25T17:06:34.564Z,34.20
2018-06-25T17:09:07.347Z,34.00
2018-06-25T17:11:37.741Z,34.10
2018-06-25T17:14:08.217Z,33.70
2018-06-25T17:16:38.297Z,34.00
2018-06-25T17:19:09.148Z,33.60
2018-06-25T17:21:39.625Z,34.80
2018-06-25T17:24:09.961Z,35.20
2018-06-25T17:26:40.357Z,34.60
2018-06-25T17:29:11.394Z,34.60
2018-06-25T17:31:41.672Z,33.90
2018-06-25T17:34:11.894Z,33.40
2018-06-25T17:39:12.214Z,33.90
2018-06-25T17:41:42.605Z,33.20
2018-06-25T17:44:12.705Z,34.50
2018-06-25T17:46:43.723Z,35.10
2018-06-25T17:49:13.957Z,35.70
2018-06-25T17:51:44.073Z,35.80
2018-06-25T17:54:14.089Z,36.00
2018-06-25T17:56:44.482Z,36.10
2018-06-25T17:59:14.707Z,36.40
2018-06-25T18:01:44.748Z,36.20
2018-06-25T18:04:15.032Z,35.90
2018-06-25T18:06:45.133Z,34.70
2018-06-25T18:09:15.725Z,34.50
2018-06-25T18:11:46.112Z,34.90
2018-06-25T18:14:16.174Z,35.50
2018-06-25T18:16:46.172Z,35.00
2018-06-25T18:19:16.351Z,36.20
2018-06-25T18:21:46.416Z,35.50
2018-06-25T18:24:16.584Z,35.50
2018-06-25T18:26:46.722Z,35.50
2018-06-25T18:29:17.005Z,35.90
2018-06-25T18:31:47.177Z,36.20
2018-06-25T18:34:17.528Z,36.50
2018-06-25T18:36:47.704Z,37.10
2018-06-25T18:39:18.576Z,37.10
2018-06-25T18:44:19.564Z,40.10
2018-06-25T18:46:49.942Z,41.30
2018-06-25T18:49:20.084Z,42.40
2018-06-25T18:54:20.183Z,43.90
2018-06-25T18:56:50.509Z,44.60
2018-06-25T18:59:20.751Z,45.30
2018-06-25T19:01:50.915Z,45.70
2018-06-25T19:04:20.930Z,46.20
2018-06-25T19:06:51.176Z,47.40
2018-06-25T19:09:21.309Z,47.40
2018-06-25T19:11:51.474Z,48.40
2018-06-25T19:14:21.683Z,48.00
2018-06-25T19:16:51.708Z,48.30
2018-06-25T19:19:21.934Z,48.30
2018-06-25T19:21:52.181Z,48.50
2018-06-25T19:24:22.445Z,48.90
2018-06-25T19:26:52.513Z,49.20
2018-06-25T19:29:22.679Z,49.70
2018-06-25T19:31:53.032Z,50.30
2018-06-25T19:34:23.619Z,50.30
2018-06-25T19:36:54.034Z,50.50
2018-06-25T19:39:24.372Z,50.80
2018-06-25T19:41:54.545Z,51.40
2018-06-25T19:44:24.594Z,50.90
2018-06-25T19:46:54.548Z,51.30
2018-06-25T19:49:24.448Z,51.40
2018-06-25T19:51:54.959Z,51.50
2018-06-25T19:54:25.940Z,51.70
2018-06-25T19:56:56.617Z,52.00
2018-06-25T19:59:26.983Z,52.30
2018-06-25T20:01:57.148Z,52.50
2018-06-25T20:04:27.354Z,52.80
2018-06-25T20:06:57.608Z,53.20
2018-06-25T20:09:27.537Z,53.90
2018-06-25T20:11:57.961Z,54.50
2018-06-25T20:14:28.069Z,54.90
2018-06-25T20:16:58.295Z,54.80
2018-06-25T20:19:28.554Z,54.90
2018-06-25T20:21:58.828Z,55.40
2018-06-25T20:24:29.004Z,55.40
2018-06-25T20:26:59.195Z,55.60
2018-06-25T20:29:29.193Z,55.80
2018-06-25T20:31:59.440Z,56.90
2018-06-25T20:34:29.807Z,57.20
2018-06-25T20:39:30.187Z,57.40
2018-06-25T20:42:00.312Z,57.60
2018-06-25T20:44:30.569Z,57.40
2018-06-25T20:47:00.728Z,58.50
2018-06-25T20:49:31.089Z,58.80
2018-06-25T20:52:01.224Z,58.30
2018-06-25T20:54:31.428Z,58.60
2018-06-25T20:57:01.905Z,58.90
2018-06-25T20:59:32.545Z,59.00
2018-06-25T21:02:02.649Z,59.40
2018-06-25T21:04:32.929Z,59.50
2018-06-25T21:07:03.047Z,60.00
2018-06-25T21:09:33.385Z,60.30
2018-06-25T21:12:03.440Z,60.60
2018-06-25T21:14:33.628Z,61.00
2018-06-25T21:17:04.180Z,61.10
2018-06-25T21:19:35.156Z,61.10
2018-06-25T21:22:06.158Z,61.20
2018-06-25T21:24:37.033Z,61.20
2018-06-25T21:30:29.548Z,61.40
2018-06-25T21:32:59.763Z,61.70
2018-06-25T21:35:29.974Z,62.20
2018-06-25T21:38:00.019Z,62.30
2018-06-25T21:40:30.158Z,62.30
2018-06-25T21:43:00.314Z,62.60
2018-06-25T21:45:30.918Z,62.60
2018-06-25T21:48:01.007Z,62.80
2018-06-25T21:50:31.045Z,62.80
2018-06-25T21:53:01.309Z,63.10
2018-06-25T21:55:31.467Z,63.90
2018-06-25T21:58:01.695Z,63.90
2018-06-25T22:00:47.453Z,63.90
2018-06-25T22:03:18.048Z,63.90
2018-06-25T22:05:49.000Z,64.10
2018-06-25T22:08:19.219Z,64.40
2018-06-25T22:10:49.348Z,64.40
2018-06-25T22:13:19.549Z,65.50
2018-06-25T22:15:49.623Z,65.70
2018-06-25T22:18:19.805Z,66.20
2018-06-25T22:20:50.656Z,66.20
2018-06-25T22:23:20.973Z,66.50
2018-06-25T22:25:51.379Z,66.60
2018-06-25T22:28:21.588Z,66.80
2018-06-25T22:30:51.778Z,66.70
2018-06-25T22:33:22.265Z,66.70
2018-06-25T22:35:52.153Z,66.80
2018-06-25T22:38:22.404Z,66.80
2018-06-25T22:40:52.505Z,67.00
2018-06-25T22:43:22.863Z,67.30
2018-06-25T22:45:52.924Z,67.20
2018-06-25T22:48:23.074Z,67.70
2018-06-25T22:50:53.257Z,68.90
2018-06-25T22:53:23.600Z,68.80
2018-06-25T22:55:53.702Z,69.20
2018-06-25T23:00:53.479Z,70.60
2018-06-25T23:03:23.915Z,70.30
2018-06-25T23:05:53.783Z,70.40
2018-06-25T23:08:23.915Z,70.50
2018-06-25T23:10:53.804Z,70.40
2018-06-25T23:20:28.636Z,71.10
2018-06-25T23:22:58.825Z,70.80
2018-06-25T23:25:29.877Z,70.30
2018-06-25T23:28:01.764Z,70.30
2018-06-25T23:30:31.719Z,70.10
2018-06-25T23:33:02.759Z,70.40
2018-06-25T23:40:33.573Z,71.70
2018-06-25T23:43:03.409Z,71.00
2018-06-25T23:45:33.413Z,71.60
2018-06-25T23:48:03.360Z,71.50
2018-06-25T23:50:33.373Z,71.60
2018-06-25T23:53:03.488Z,71.80
2018-06-25T23:55:33.613Z,72.10
2018-06-25T23:58:04.134Z,71.40
